createdAt,value
2023-04-04T00:01:34.849Z,21.77
2023-04-04T00:04:40.998Z,22.90
2023-04-04T00:07:46.703Z,21.17
2023-04-04T00:10:52.519Z,21.48
2023-04-04T00:13:59.313Z,21.57
2023-04-04T00:17:05.716Z,23.15
2023-04-04T00:20:11.749Z,23.27
2023-04-04T00:23:17.833Z,23.70
2023-04-04T00:26:25.832Z,24.63
2023-04-04T00:29:31.437Z,23.50
2023-04-04T00:32:37.489Z,24.05
2023-04-04T00:35:42.335Z,24.02
2023-04-04T00:38:48.343Z,25.23
2023-04-04T00:41:53.649Z,25.08
2023-04-04T00:44:59.526Z,25.45
2023-04-04T00:48:04.295Z,25.20
2023-04-04T00:51:10.227Z,25.02
2023-04-04T00:54:16.012Z,24.40
2023-04-04T00:57:21.962Z,24.37
2023-04-04T01:00:29.823Z,24.05
2023-04-04T01:03:36.466Z,26.12
2023-04-04T01:06:42.244Z,24.60
2023-04-04T01:09:48.853Z,24.60
2023-04-04T01:12:55.441Z,25.30
2023-04-04T01:16:01.092Z,26.75
2023-04-04T01:19:07.496Z,25.70
2023-04-04T01:22:13.942Z,26.45
2023-04-04T01:25:22.309Z,28.57
2023-04-04T01:28:29.484Z,28.00
2023-04-04T01:31:48.210Z,27.22
2023-04-04T01:35:15.206Z,26.95
2023-04-04T01:38:35.131Z,27.95
2023-04-04T01:41:42.007Z,24.60
2023-04-04T01:44:47.109Z,28.38
2023-04-04T01:47:56.509Z,26.12
2023-04-04T01:51:04.269Z,27.22
2023-04-04T01:54:10.186Z,28.05
2023-04-04T01:57:15.886Z,27.40
2023-04-04T02:00:23.655Z,24.95
2023-04-04T02:03:29.710Z,26.15
2023-04-04T02:06:36.670Z,24.87
2023-04-04T02:09:42.242Z,23.73
2023-04-04T02:12:48.160Z,24.02
2023-04-04T02:15:56.162Z,21.95
2023-04-04T02:19:02.337Z,23.92
2023-04-04T02:22:07.937Z,23.67
2023-04-04T02:25:14.999Z,23.67
2023-04-04T02:28:21.521Z,24.67
2023-04-04T02:31:27.254Z,23.47
2023-04-04T02:34:33.364Z,24.37
2023-04-04T02:37:39.783Z,21.97
2023-04-04T02:40:49.497Z,23.32
2023-04-04T02:43:55.126Z,20.20
2023-04-04T02:47:00.866Z,24.65
2023-04-04T02:50:05.746Z,27.15
2023-04-04T02:53:18.847Z,34.18
2023-04-04T02:56:26.668Z,29.40
2023-04-04T02:59:32.907Z,30.85
2023-04-04T03:02:39.149Z,23.50
2023-04-04T03:05:46.026Z,16.30
2023-04-04T03:08:53.398Z,12.88
2023-04-04T03:11:59.274Z,13.53
2023-04-04T03:15:05.482Z,13.22
2023-04-04T03:18:10.953Z,11.93
2023-04-04T03:21:18.291Z,11.75
2023-04-04T03:24:24.264Z,10.48
2023-04-04T03:27:30.520Z,10.60
2023-04-04T03:30:36.909Z,11.60
2023-04-04T03:33:46.018Z,14.00
2023-04-04T03:36:53.664Z,14.77
2023-04-04T03:39:59.341Z,16.97
2023-04-04T03:43:05.909Z,16.57
2023-04-04T03:46:20.639Z,15.85
2023-04-04T03:49:26.519Z,15.72
2023-04-04T03:52:33.531Z,13.25
2023-04-04T03:55:39.112Z,16.05
2023-04-04T03:58:44.710Z,14.93
2023-04-04T04:01:54.436Z,11.43
2023-04-04T04:05:01.533Z,11.78
2023-04-04T04:08:08.930Z,11.97
2023-04-04T04:11:19.793Z,12.60
2023-04-04T04:14:24.434Z,11.03
2023-04-04T04:17:31.774Z,11.45
2023-04-04T04:20:39.330Z,13.05
2023-04-04T04:23:45.787Z,17.35
2023-04-04T04:26:51.946Z,18.23
2023-04-04T04:29:58.370Z,19.77
2023-04-04T04:33:06.097Z,13.70
2023-04-04T04:36:22.005Z,11.70
2023-04-04T04:39:31.686Z,13.00
2023-04-04T04:42:40.348Z,11.20
2023-04-04T04:45:48.339Z,12.13
2023-04-04T04:48:55.270Z,12.45
2023-04-04T04:52:04.014Z,12.45
2023-04-04T04:55:11.958Z,14.50
2023-04-04T04:58:24.683Z,22.82
2023-04-04T05:01:31.908Z,18.95
2023-04-04T05:04:38.307Z,14.00
2023-04-04T05:07:44.847Z,12.05
2023-04-04T05:10:52.189Z,10.75
2023-04-04T05:13:59.476Z,11.60
2023-04-04T05:17:08.100Z,11.30
2023-04-04T05:20:15.867Z,12.60
2023-04-04T05:23:22.579Z,10.80
2023-04-04T05:26:28.203Z,11.12
2023-04-04T05:29:38.893Z,13.30
2023-04-04T05:32:45.677Z,14.98
2023-04-04T05:35:53.480Z,13.00
2023-04-04T05:39:00.745Z,13.50
2023-04-04T05:42:10.043Z,12.78
2023-04-04T05:48:27.636Z,14.25
2023-04-04T05:51:33.285Z,15.03
2023-04-04T05:54:41.881Z,15.40
2023-04-04T05:57:49.061Z,16.23
2023-04-04T06:00:56.204Z,14.78
2023-04-04T06:04:04.694Z,14.80
2023-04-04T06:07:15.920Z,14.50
2023-04-04T06:10:24.150Z,19.75
2023-04-04T06:13:30.876Z,18.87
2023-04-04T06:16:39.033Z,21.48
2023-04-04T06:19:45.678Z,19.12
2023-04-04T06:22:55.570Z,19.15
2023-04-04T06:26:02.455Z,19.00
2023-04-04T06:29:04.957Z,19.92
2023-04-04T06:32:12.597Z,19.15
2023-04-04T06:35:20.746Z,18.17
2023-04-04T06:38:27.873Z,19.12
2023-04-04T06:41:36.140Z,20.05
2023-04-04T06:44:41.097Z,20.25
2023-04-04T06:47:50.349Z,19.82
2023-04-04T06:50:56.254Z,18.60
2023-04-04T06:54:04.319Z,16.82
2023-04-04T06:57:10.160Z,16.48
2023-04-04T07:00:17.800Z,18.05
2023-04-04T07:03:24.184Z,19.62
2023-04-04T07:06:31.173Z,17.87
2023-04-04T07:09:37.027Z,17.40
2023-04-04T07:12:41.777Z,17.52
2023-04-04T07:15:47.820Z,17.32
2023-04-04T07:18:56.741Z,17.82
2023-04-04T07:22:02.427Z,17.62
2023-04-04T07:25:08.137Z,17.73
2023-04-04T07:28:13.600Z,15.63
2023-04-04T07:31:21.986Z,15.80
2023-04-04T07:34:28.396Z,14.55
2023-04-04T07:37:34.135Z,15.98
2023-04-04T07:40:40.011Z,16.35
2023-04-04T07:43:46.273Z,15.50
2023-04-04T07:47:06.357Z,16.50
2023-04-04T07:50:00.498Z,16.48
2023-04-04T07:53:07.384Z,16.32
2023-04-04T07:56:14.094Z,13.50
2023-04-04T07:59:20.090Z,15.35
2023-04-04T08:02:27.204Z,13.75
2023-04-04T08:05:33.688Z,16.97
2023-04-04T08:08:39.436Z,17.92
2023-04-04T08:11:49.038Z,18.07
2023-04-04T08:15:06.926Z,18.23
2023-04-04T08:18:14.643Z,16.60
2023-04-04T08:21:20.114Z,20.37
2023-04-04T08:24:28.251Z,18.23
2023-04-04T08:27:52.855Z,22.60
2023-04-04T08:31:11.302Z,15.58
2023-04-04T08:34:17.003Z,17.15
2023-04-04T08:37:23.052Z,20.90
2023-04-04T08:40:39.248Z,19.82
2023-04-04T08:43:57.088Z,16.85
2023-04-04T08:47:03.502Z,18.23
2023-04-04T08:50:10.593Z,14.15
2023-04-04T08:53:16.704Z,13.30
2023-04-04T08:56:23.193Z,16.25
2023-04-04T08:59:30.732Z,15.98
2023-04-04T09:02:42.734Z,23.10
2023-04-04T09:05:48.463Z,25.12
2023-04-04T09:08:54.667Z,20.27
2023-04-04T09:12:00.152Z,18.73
2023-04-04T09:15:06.950Z,21.85
2023-04-04T09:18:12.457Z,25.77
2023-04-04T09:21:26.355Z,19.95
2023-04-04T09:24:31.924Z,13.85
2023-04-04T09:27:36.955Z,17.95
2023-04-04T09:30:44.384Z,14.25
2023-04-04T09:33:53.130Z,14.40
2023-04-04T09:37:00.394Z,10.48
2023-04-04T09:40:06.333Z,10.23
2023-04-04T09:43:23.526Z,9.18
2023-04-04T09:46:28.860Z,9.23
2023-04-04T09:49:38.883Z,9.18
2023-04-04T09:52:51.908Z,12.58
2023-04-04T09:55:58.701Z,9.00
2023-04-04T09:59:05.206Z,8.78
2023-04-04T10:02:17.025Z,9.50
2023-04-04T10:05:27.123Z,9.33
2023-04-04T10:08:35.193Z,11.18
2023-04-04T10:11:46.169Z,9.55
2023-04-04T10:14:52.523Z,11.12
2023-04-04T10:18:02.105Z,10.35
2023-04-04T10:24:18.432Z,10.03
2023-04-04T10:27:24.262Z,8.73
2023-04-04T10:30:29.485Z,11.20
2023-04-04T10:34:12.672Z,10.32
2023-04-04T10:37:25.698Z,10.90
2023-04-04T10:40:33.375Z,9.40
2023-04-04T10:43:40.622Z,10.30
2023-04-04T10:46:46.248Z,9.25
2023-04-04T10:49:52.948Z,9.88
2023-04-04T10:52:59.583Z,11.28
2023-04-04T10:56:05.008Z,10.08
2023-04-04T10:59:30.579Z,9.93
2023-04-04T11:03:00.069Z,10.30
2023-04-04T11:06:09.250Z,9.65
2023-04-04T11:09:15.830Z,10.13
2023-04-04T11:12:26.361Z,8.93
2023-04-04T11:15:35.247Z,8.78
2023-04-04T11:19:00.810Z,8.65
2023-04-04T11:22:06.489Z,8.80
2023-04-04T11:25:17.930Z,8.33
2023-04-04T11:28:28.624Z,8.70
2023-04-04T11:31:41.918Z,9.10
2023-04-04T11:34:51.269Z,7.92
2023-04-04T11:38:10.164Z,7.47
2023-04-04T11:41:17.360Z,7.58
2023-04-04T11:44:24.469Z,6.72
2023-04-04T11:47:30.161Z,7.35
2023-04-04T11:50:35.458Z,8.20
2023-04-04T11:53:41.139Z,7.75
2023-04-04T11:56:54.394Z,7.55
2023-04-04T12:00:02.022Z,8.80
2023-04-04T12:03:08.275Z,8.58
2023-04-04T12:06:14.786Z,6.78
2023-04-04T12:09:22.268Z,7.87
2023-04-04T12:12:29.341Z,8.73
2023-04-04T12:15:38.106Z,7.83
2023-04-04T12:18:44.722Z,7.62
2023-04-04T12:21:52.755Z,8.05
2023-04-04T12:25:01.168Z,8.53
2023-04-04T12:28:07.017Z,7.47
2023-04-04T12:31:13.340Z,8.48
2023-04-04T12:34:18.331Z,7.85
2023-04-04T12:37:25.951Z,7.47
2023-04-04T12:40:32.454Z,8.05
2023-04-04T12:43:40.859Z,7.55
2023-04-04T12:46:53.898Z,7.42
2023-04-04T12:50:04.061Z,7.78
2023-04-04T12:53:27.434Z,8.10
2023-04-04T12:56:18.370Z,8.08
2023-04-04T12:59:24.011Z,7.58
2023-04-04T13:02:32.105Z,6.97
2023-04-04T13:05:41.979Z,6.33
2023-04-04T13:08:49.985Z,7.83
2023-04-04T13:12:16.123Z,6.92
2023-04-04T13:15:21.780Z,8.00
2023-04-04T13:18:36.987Z,8.15
2023-04-04T13:21:42.409Z,8.05
2023-04-04T13:24:47.813Z,6.87
2023-04-04T13:27:54.288Z,8.48
2023-04-04T13:30:59.673Z,6.97
2023-04-04T13:34:05.749Z,7.33
2023-04-04T13:37:11.275Z,7.58
2023-04-04T13:40:17.631Z,6.87
2023-04-04T13:43:22.857Z,7.37
2023-04-04T13:46:28.173Z,7.60
2023-04-04T13:49:33.646Z,7.33
2023-04-04T13:52:39.346Z,7.35
2023-04-04T13:56:07.657Z,6.37
2023-04-04T13:58:56.604Z,6.92
2023-04-04T14:02:03.754Z,5.75
2023-04-04T14:05:09.396Z,6.15
2023-04-04T14:08:14.953Z,5.92
2023-04-04T14:11:21.396Z,5.60
2023-04-04T14:14:26.527Z,6.25
2023-04-04T14:17:32.829Z,5.78
2023-04-04T14:20:38.873Z,5.78
2023-04-04T14:23:45.983Z,6.00
2023-04-04T14:26:52.261Z,5.53
2023-04-04T14:29:58.458Z,5.60
2023-04-04T14:33:04.925Z,6.03
2023-04-04T14:36:11.140Z,6.00
2023-04-04T14:39:17.544Z,5.58
2023-04-04T14:42:23.584Z,5.47
2023-04-04T14:45:30.991Z,5.92
2023-04-04T14:48:36.864Z,5.97
2023-04-04T14:51:43.502Z,6.05
2023-04-04T14:54:49.576Z,5.35
2023-04-04T15:01:03.720Z,5.95
2023-04-04T15:04:10.042Z,5.67
2023-04-04T15:07:15.654Z,6.45
2023-04-04T15:10:22.243Z,6.22
2023-04-04T15:13:27.585Z,6.12
2023-04-04T15:16:36.731Z,4.92
2023-04-04T15:19:43.456Z,6.35
2023-04-04T15:22:48.745Z,5.67
2023-04-04T15:25:55.086Z,5.60
2023-04-04T15:29:01.793Z,6.42
2023-04-04T15:32:08.326Z,6.20
2023-04-04T15:35:14.182Z,6.20
2023-04-04T15:38:20.404Z,6.25
2023-04-04T15:41:26.505Z,6.28
2023-04-04T15:44:31.575Z,6.47
2023-04-04T15:47:36.788Z,6.50
2023-04-04T15:50:42.483Z,6.80
2023-04-04T15:53:42.439Z,7.28
2023-04-04T15:56:47.848Z,7.00
2023-04-04T15:59:53.766Z,6.87
2023-04-04T16:03:02.041Z,7.20
2023-04-04T16:06:09.212Z,7.97
2023-04-04T16:09:16.780Z,7.40
2023-04-04T16:12:22.226Z,7.75
2023-04-04T16:15:28.459Z,7.28
2023-04-04T16:18:35.012Z,7.78
2023-04-04T16:21:40.294Z,7.92
2023-04-04T16:24:46.364Z,7.50
2023-04-04T16:27:53.712Z,8.13
2023-04-04T16:31:01.118Z,7.70
2023-04-04T16:34:06.723Z,7.95
2023-04-04T16:37:13.374Z,8.18
2023-04-04T16:40:20.783Z,7.58
2023-04-04T16:43:25.689Z,8.13
2023-04-04T16:46:33.024Z,7.65
2023-04-04T16:49:39.353Z,7.60
2023-04-04T16:52:46.525Z,7.72
2023-04-04T16:55:52.699Z,7.90
2023-04-04T16:59:00.671Z,8.18
2023-04-04T17:02:06.602Z,8.73
2023-04-04T17:05:12.824Z,9.43
2023-04-04T17:08:18.441Z,9.80
2023-04-04T17:11:24.398Z,8.88
2023-04-04T17:14:30.261Z,8.28
2023-04-04T17:17:36.237Z,9.00
2023-04-04T17:20:45.067Z,8.85
2023-04-04T17:23:50.037Z,8.90
2023-04-04T17:26:56.247Z,8.80
2023-04-04T17:30:01.215Z,8.53
2023-04-04T17:33:08.415Z,9.03
2023-04-04T17:36:14.265Z,8.75
2023-04-04T17:39:19.968Z,8.75
2023-04-04T17:42:25.042Z,9.58
2023-04-04T17:45:30.699Z,9.25
2023-04-04T17:48:38.048Z,8.85
2023-04-04T17:51:44.502Z,9.95
2023-04-04T17:54:50.281Z,9.33
2023-04-04T17:57:56.525Z,9.15
2023-04-04T18:01:04.523Z,9.90
2023-04-04T18:04:11.719Z,10.93
2023-04-04T18:07:17.231Z,9.95
2023-04-04T18:10:24.841Z,10.93
2023-04-04T18:13:30.965Z,10.35
2023-04-04T18:16:40.083Z,10.25
2023-04-04T18:19:45.224Z,10.70
2023-04-04T18:22:50.128Z,11.40
2023-04-04T18:25:55.360Z,12.05
2023-04-04T18:29:00.794Z,10.80
2023-04-04T18:32:06.104Z,11.97
2023-04-04T18:35:11.771Z,11.12
2023-04-04T18:38:18.002Z,11.78
2023-04-04T18:41:24.298Z,12.18
2023-04-04T18:44:30.018Z,11.38
2023-04-04T18:47:35.773Z,10.72
2023-04-04T18:50:42.398Z,11.73
2023-04-04T18:53:50.855Z,11.18
2023-04-04T18:56:56.137Z,11.03
2023-04-04T19:00:01.973Z,11.80
2023-04-04T19:03:09.944Z,14.33
2023-04-04T19:06:19.927Z,11.73
2023-04-04T19:09:25.677Z,12.58
2023-04-04T19:12:32.094Z,12.13
2023-04-04T19:15:37.393Z,11.40
2023-04-04T19:18:42.420Z,11.80
2023-04-04T19:21:47.670Z,10.63
2023-04-04T19:24:53.340Z,12.65
2023-04-04T19:27:59.207Z,12.60
2023-04-04T19:31:05.441Z,11.95
2023-04-04T19:34:13.867Z,11.30
2023-04-04T19:37:21.395Z,12.27
2023-04-04T19:40:29.628Z,12.70
2023-04-04T19:43:36.201Z,11.55
2023-04-04T19:46:43.440Z,12.37
2023-04-04T19:49:51.416Z,12.70
2023-04-04T19:52:57.798Z,12.95
2023-04-04T19:56:04.541Z,12.28
2023-04-04T19:59:15.674Z,13.75
2023-04-04T20:05:47.393Z,13.35
2023-04-04T20:08:59.884Z,13.68
2023-04-04T20:12:04.848Z,13.15
2023-04-04T20:15:13.736Z,13.18
2023-04-04T20:18:19.017Z,13.43
2023-04-04T20:21:33.713Z,13.32
2023-04-04T20:24:40.168Z,14.45
2023-04-04T20:27:45.987Z,13.62
2023-04-04T20:30:52.730Z,13.85
2023-04-04T20:33:59.205Z,14.13
2023-04-04T20:37:05.283Z,12.70
2023-04-04T20:40:24.346Z,12.70
2023-04-04T20:43:30.418Z,13.38
2023-04-04T20:46:38.880Z,13.45
2023-04-04T20:49:45.055Z,13.85
2023-04-04T20:52:50.528Z,13.65
2023-04-04T20:55:56.926Z,14.30
2023-04-04T20:59:02.725Z,13.58
2023-04-04T21:02:08.558Z,12.98
2023-04-04T21:05:14.914Z,12.63
2023-04-04T21:08:40.104Z,14.03
2023-04-04T21:11:46.490Z,13.48
2023-04-04T21:14:51.563Z,13.18
2023-04-04T21:17:58.005Z,13.98
2023-04-04T21:21:08.984Z,13.22
2023-04-04T21:24:19.455Z,13.53
2023-04-04T21:27:27.352Z,13.30
2023-04-04T21:30:51.833Z,14.53
2023-04-04T21:34:00.565Z,14.00
2023-04-04T21:37:09.280Z,14.80
2023-04-04T21:40:14.499Z,15.00
2023-04-04T21:43:19.849Z,14.35
2023-04-04T21:46:26.697Z,14.10
2023-04-04T21:49:32.741Z,15.25
2023-04-04T21:52:38.127Z,14.85
2023-04-04T21:55:43.919Z,15.53
2023-04-04T21:58:50.158Z,14.83
2023-04-04T22:01:55.191Z,14.50
2023-04-04T22:05:02.815Z,15.00
2023-04-04T22:08:02.003Z,14.63
2023-04-04T22:11:10.753Z,13.53
2023-04-04T22:14:16.143Z,13.75
2023-04-04T22:17:24.727Z,13.70
2023-04-04T22:20:30.413Z,14.90
2023-04-04T22:23:37.769Z,13.20
2023-04-04T22:26:44.068Z,13.22
2023-04-04T22:29:50.425Z,13.22
2023-04-04T22:32:56.594Z,13.85
2023-04-04T22:36:01.412Z,13.38
2023-04-04T22:39:08.479Z,12.60
2023-04-04T22:42:14.672Z,13.78
2023-04-04T22:45:20.863Z,14.55
2023-04-04T22:48:29.469Z,13.95
2023-04-04T22:51:35.248Z,13.70
2023-04-04T22:54:42.375Z,14.30
2023-04-04T22:57:48.777Z,14.40
2023-04-04T23:00:54.733Z,14.20
2023-04-04T23:04:00.531Z,14.68
2023-04-04T23:07:05.420Z,14.80
2023-04-04T23:13:35.504Z,15.40
2023-04-04T23:16:42.053Z,16.05
2023-04-04T23:19:49.028Z,16.73
2023-04-04T23:22:55.353Z,16.57
2023-04-04T23:26:01.717Z,16.65
2023-04-04T23:29:08.783Z,16.32
2023-04-04T23:32:14.107Z,17.23
2023-04-04T23:35:19.388Z,17.55
2023-04-04T23:38:25.328Z,19.02
2023-04-04T23:41:31.038Z,18.92
2023-04-04T23:44:37.405Z,18.55
2023-04-04T23:47:42.855Z,18.42
2023-04-04T23:50:47.634Z,20.62
2023-04-04T23:53:53.743Z,20.75
2023-04-04T23:57:00.248Z,20.55
